Time;durP1;ratioP1;P1;durP2;ratioP2;P2;SDS_P1;SDS_P2;PMS_P1;PMS_P2;Temp;Humidity;BMP_temperature;BMP_pressure;BME280_temperature;BME280_humidity;BME280_pressure;Samples;Min_cycle;Max_cycle;Signal;HPM_P1;HPM_P2
2023/08/12 00:10:03;;;;;;;12.05;2.90;;;;;;;25.49;100.00;100916.25;20899225;28;20064;-71
2023/08/12 00:20:24;;;;;;;9.82;3.13;;;;;;;25.46;100.00;100913.72;20894008;28;20045;-70
2023/08/12 00:30:49;;;;;;;8.63;3.00;;;;;;;25.46;100.00;100914.59;20919252;28;21423;-71
2023/08/12 00:41:11;;;;;;;10.68;3.13;;;;;;;25.42;100.00;100904.81;20880169;28;20176;-71
2023/08/12 00:51:37;;;;;;;5.57;2.70;;;;;;;25.38;100.00;100897.81;20897450;28;20631;-70
2023/08/12 01:02:00;;;;;;;9.05;2.95;;;;;;;25.35;100.00;100898.81;20853007;28;20118;-71
2023/08/12 01:12:30;;;;;;;8.18;2.80;;;;;;;25.35;100.00;100897.94;20920778;28;20102;-71
2023/08/12 01:22:58;;;;;;;11.65;2.88;;;;;;;25.37;100.00;100885.25;20889498;28;20060;-70
2023/08/12 01:33:27;;;;;;;7.43;2.67;;;;;;;25.41;100.00;100882.31;20889609;28;20106;-72
2023/08/12 01:43:50;;;;;;;9.07;2.83;;;;;;;25.35;100.00;100869.06;20901054;28;20052;-70
2023/08/12 01:54:15;;;;;;;8.63;2.25;;;;;;;25.29;100.00;100871.16;20877077;28;20107;-71
2023/08/12 02:04:37;;;;;;;7.20;2.40;;;;;;;25.28;100.00;100864.88;20893219;28;20052;-71
2023/08/12 02:15:01;;;;;;;7.72;2.33;;;;;;;25.23;100.00;100872.31;20876894;28;20409;-70
2023/08/12 02:25:24;;;;;;;6.60;2.47;;;;;;;25.20;100.00;100875.16;20910879;28;20041;-71
2023/08/12 02:35:49;;;;;;;6.07;2.38;;;;;;;25.16;100.00;100873.53;20883042;28;20052;-71
2023/08/12 02:46:12;;;;;;;6.57;2.10;;;;;;;25.16;100.00;100870.81;20889162;28;20087;-71
2023/08/12 02:56:36;;;;;;;4.07;2.10;;;;;;;25.16;100.00;100862.72;20884077;28;20057;-71
2023/08/12 03:06:59;;;;;;;6.72;2.20;;;;;;;25.09;100.00;100863.91;20914134;28;20045;-71
2023/08/12 03:17:23;;;;;;;4.28;2.20;;;;;;;25.05;100.00;100861.41;20898990;28;20052;-71
2023/08/12 03:27:47;;;;;;;7.38;2.78;;;;;;;25.03;100.00;100864.19;20885654;28;20067;-71
2023/08/12 03:38:13;;;;;;;10.68;3.13;;;;;;;25.03;100.00;100850.66;20880458;28;20041;-71
2023/08/12 03:48:35;;;;;;;5.15;2.42;;;;;;;25.15;100.00;100857.38;20879816;28;20044;-71
2023/08/12 03:58:59;;;;;;;6.68;2.55;;;;;;;25.30;100.00;100856.72;20887146;28;20076;-71
2023/08/12 04:09:22;;;;;;;9.35;2.72;;;;;;;25.34;100.00;100853.78;20909001;28;20053;-71
2023/08/12 04:19:26;;;;;;;7.15;2.70;;;;;;;25.35;100.00;100858.25;20881399;28;20048;-71
2023/08/12 04:29:49;;;;;;;7.57;2.67;;;;;;;25.40;100.00;100858.94;20879381;28;20048;-71
2023/08/12 04:40:15;;;;;;;8.27;2.58;;;;;;;25.56;100.00;100861.84;20904838;28;20045;-71
2023/08/12 04:50:38;;;;;;;9.07;2.40;;;;;;;25.67;100.00;100858.69;20876052;28;20049;-71
2023/08/12 05:01:04;;;;;;;6.88;2.53;;;;;;;26.24;100.00;100857.88;20911261;28;20481;-71
2023/08/12 05:11:26;;;;;;;6.90;2.50;;;;;;;26.83;100.00;100864.91;20872092;28;20053;-71
2023/08/12 05:21:50;;;;;;;7.47;2.10;;;;;;;27.95;100.00;100850.88;20874366;28;20072;-71
2023/08/12 05:32:13;;;;;;;10.68;2.95;;;;;;;27.87;100.00;100852.25;20889455;28;20492;-71
2023/08/12 05:42:37;;;;;;;8.82;2.33;;;;;;;27.69;100.00;100851.41;20878837;28;20553;-71
2023/08/12 05:53:00;;;;;;;7.90;2.80;;;;;;;28.01;100.00;100858.69;20893265;28;20076;-71
2023/08/12 06:03:24;;;;;;;6.28;2.10;;;;;;;28.18;100.00;100851.44;20874544;28;20045;-71
2023/08/12 06:13:46;;;;;;;6.18;2.00;;;;;;;29.41;100.00;100849.66;20894797;28;20053;-71
2023/08/12 06:24:11;;;;;;;8.80;2.22;;;;;;;28.72;100.00;100850.16;20870929;28;20057;-71
2023/08/12 06:34:34;;;;;;;9.95;2.55;;;;;;;28.18;100.00;100855.03;20883909;28;20586;-71
2023/08/12 06:45:00;;;;;;;9.73;2.42;;;;;;;29.16;100.00;100863.84;20882949;28;20049;-71
2023/08/12 06:55:24;;;;;;;7.50;2.58;;;;;;;28.75;100.00;100861.72;20846649;28;20045;-70
2023/08/12 07:05:48;;;;;;;10.80;2.50;;;;;;;30.06;99.55;100856.50;20879043;28;20554;-71
2023/08/12 07:16:11;;;;;;;8.23;1.95;;;;;;;30.92;92.32;100854.50;20877044;28;20486;-70
2023/08/12 07:26:35;;;;;;;12.30;2.70;;;;;;;30.86;84.29;100863.94;20887265;28;20090;-70
2023/08/12 07:36:58;;;;;;;6.63;1.70;;;;;;;30.56;85.97;100852.34;20884509;28;20051;-70
2023/08/12 07:47:25;;;;;;;8.98;2.30;;;;;;;30.46;86.49;100862.94;20872057;28;20056;-70
2023/08/12 07:57:47;;;;;;;7.32;1.80;;;;;;;30.75;81.18;100855.59;20869132;28;20500;-71
2023/08/12 08:08:12;;;;;;;10.88;2.63;;;;;;;30.80;81.02;100865.22;20870342;28;20048;-70
2023/08/12 08:18:35;;;;;;;6.97;2.17;;;;;;;31.67;75.02;100851.09;20869885;28;20041;-70
2023/08/12 08:28:59;;;;;;;7.40;2.10;;;;;;;32.08;67.72;100850.84;20909050;28;20060;-68
2023/08/12 08:39:21;;;;;;;7.93;2.20;;;;;;;32.40;66.19;100852.13;20914434;28;20060;-68
2023/08/12 08:49:46;;;;;;;8.70;2.30;;;;;;;32.68;63.75;100870.13;20899153;28;20101;-68
2023/08/12 09:00:10;;;;;;;8.07;1.98;;;;;;;33.27;57.02;100872.94;20866242;28;20041;-68
2023/08/12 09:10:37;;;;;;;7.00;2.27;;;;;;;33.42;53.79;100863.53;20875376;28;20053;-68
2023/08/12 09:20:59;;;;;;;5.80;2.08;;;;;;;33.68;51.32;100866.94;20904619;28;20501;-68
2023/08/12 09:31:09;;;;;;;5.57;2.17;;;;;;;34.29;48.23;100857.47;20886653;28;20405;-68
2023/08/12 09:41:12;;;;;;;7.97;2.42;;;;;;;34.67;46.77;100865.25;20870073;28;20049;-69
2023/08/12 09:51:41;;;;;;;8.10;2.63;;;;;;;34.92;45.03;100860.50;20876795;28;20165;-69
2023/08/12 10:02:06;;;;;;;9.70;2.22;;;;;;;34.80;43.10;100862.38;20884961;28;20052;-68
2023/08/12 10:12:31;;;;;;;13.05;2.20;;;;;;;34.86;42.71;100859.13;20852139;28;20083;-68
2023/08/12 10:22:54;;;;;;;8.80;3.10;;;;;;;34.79;41.79;100869.72;20882195;28;20550;-69
2023/08/12 10:33:19;;;;;;;6.55;1.88;;;;;;;34.71;40.90;100866.78;20884152;28;20064;-69
2023/08/12 10:43:49;;;;;;;;;;;;;;;34.54;40.24;100864.53;20882988;28;20557;-69
2023/08/12 10:54:23;;;;;;;8.20;2.13;;;;;;;34.35;40.82;100865.19;20871821;28;19935;-69
2023/08/12 11:04:45;;;;;;;7.15;2.90;;;;;;;34.21;40.29;100862.69;20858354;28;20444;-69
2023/08/12 11:15:12;;;;;;;7.43;2.20;;;;;;;34.14;40.63;100855.06;20856198;28;20068;-69
2023/08/12 11:25:36;;;;;;;9.77;2.70;;;;;;;34.06;40.46;100836.53;20874308;28;20041;-69
2023/08/12 11:36:01;;;;;;;7.22;2.10;;;;;;;33.99;40.53;100832.53;20888428;28;20107;-69
2023/08/12 11:46:23;;;;;;;8.35;2.17;;;;;;;34.15;41.51;100854.06;20864691;28;20500;-69
2023/08/12 11:56:48;;;;;;;8.88;2.38;;;;;;;34.27;42.17;100836.63;20896009;28;20052;-69
2023/08/12 12:07:21;;;;;;;8.73;2.40;;;;;;;34.27;41.86;100853.97;20856038;28;20460;-70
2023/08/12 12:17:46;;;;;;;7.60;2.50;;;;;;;34.37;42.01;100851.34;20885500;28;20049;-69
2023/08/12 12:27:49;;;;;;;9.68;2.88;;;;;;;34.27;41.18;100839.38;20861463;28;20045;-69
2023/08/12 12:38:00;;;;;;;8.85;2.55;;;;;;;34.06;41.61;100831.03;20891742;28;20143;-70
2023/08/12 12:48:22;;;;;;;7.27;2.53;;;;;;;33.78;41.96;100812.34;20853837;28;20094;-71
2023/08/12 12:58:47;;;;;;;7.72;2.47;;;;;;;33.34;41.80;100815.84;20861000;28;20045;-71
2023/08/12 13:09:09;;;;;;;8.02;2.05;;;;;;;33.38;41.48;100807.25;20868181;28;20052;-70
2023/08/12 13:19:37;;;;;;;8.23;2.70;;;;;;;33.18;42.92;100800.59;20840787;28;20049;-70
2023/08/12 13:29:54;;;;;;;9.45;2.63;;;;;;;33.20;42.36;100798.66;20888859;28;20083;-71
2023/08/12 13:40:19;;;;;;;6.00;2.53;;;;;;;32.68;43.48;100804.50;20906316;28;20052;-70
2023/08/12 13:50:42;;;;;;;11.38;2.97;;;;;;;32.44;43.75;100801.69;20876141;28;20049;-71
2023/08/12 14:01:06;;;;;;;11.02;3.03;;;;;;;32.28;44.29;100806.59;20894774;28;20048;-71
2023/08/12 14:11:29;;;;;;;11.48;2.80;;;;;;;32.15;44.82;100804.88;20873876;28;20059;-71
2023/08/12 14:21:53;;;;;;;10.10;2.80;;;;;;;31.87;45.78;100808.69;20887599;28;20045;-70
2023/08/12 14:31:55;;;;;;;10.50;3.00;;;;;;;32.11;46.19;100795.09;20900064;28;20131;-70
2023/08/12 14:42:19;;;;;;;9.25;2.50;;;;;;;32.35;45.37;100775.06;20904660;28;20094;-70
2023/08/12 14:52:42;;;;;;;10.00;3.10;;;;;;;32.23;45.19;100770.50;20890156;28;20525;-71
2023/08/12 15:03:06;;;;;;;9.27;2.53;;;;;;;31.69;44.53;100769.06;20905937;28;20099;-70
2023/08/12 15:13:28;;;;;;;15.90;3.38;;;;;;;31.01;44.42;100769.28;20925005;28;20163;-70
2023/08/12 15:23:53;;;;;;;9.63;2.75;;;;;;;30.34;49.73;100757.47;20883562;28;20033;-71
2023/08/12 15:34:16;;;;;;;9.80;2.92;;;;;;;29.81;54.57;100772.72;20878654;28;20493;-71
2023/08/12 15:44:31;;;;;;;11.90;3.75;;;;;;;29.62;56.73;100759.41;20887282;28;20073;-70
2023/08/12 15:54:53;;;;;;;10.25;3.78;;;;;;;29.39;59.42;100770.00;20909339;28;20769;-70
2023/08/12 16:05:17;;;;;;;14.77;3.38;;;;;;;29.14;62.96;100765.19;20893007;28;20144;-70
2023/08/12 16:15:40;;;;;;;12.20;3.38;;;;;;;28.86;63.90;100776.84;20892033;28;20670;-71
2023/08/12 16:26:04;;;;;;;8.60;2.97;;;;;;;28.72;67.89;100785.81;20911089;28;20041;-70
2023/08/12 16:36:26;;;;;;;16.17;4.57;;;;;;;28.49;72.12;100787.13;20876131;28;20053;-70
2023/08/12 16:46:51;;;;;;;10.30;4.07;;;;;;;28.29;77.44;100792.84;20902548;28;20064;-70
2023/08/12 16:57:16;;;;;;;12.68;3.97;;;;;;;28.07;81.24;100792.31;20887152;28;20056;-70
2023/08/12 17:07:40;;;;;;;12.38;4.18;;;;;;;27.91;84.56;100799.53;20903522;28;20057;-71
2023/08/12 17:17:57;;;;;;;12.77;4.07;;;;;;;27.71;85.64;100801.50;20895476;28;20412;-71
2023/08/12 17:28:22;;;;;;;13.57;3.80;;;;;;;27.62;84.68;100810.19;20908650;28;20049;-70
2023/08/12 17:38:45;;;;;;;10.57;3.78;;;;;;;27.50;85.33;100816.22;20879077;28;20049;-71
2023/08/12 17:49:10;;;;;;;15.10;5.32;;;;;;;27.36;87.71;100816.97;20916535;28;20045;-71
2023/08/12 17:59:33;;;;;;;12.95;4.30;;;;;;;27.23;89.67;100820.41;20894891;28;20044;-71
2023/08/12 18:09:57;;;;;;;15.88;4.53;;;;;;;27.12;94.08;100822.78;20885151;28;20061;-70
2023/08/12 18:20:21;;;;;;;12.35;3.80;;;;;;;26.96;97.24;100833.53;20888202;28;20049;-71
2023/08/12 18:30:25;;;;;;;19.23;7.00;;;;;;;26.88;99.39;100835.72;20891041;28;20443;-71
2023/08/12 18:40:29;;;;;;;13.50;4.22;;;;;;;26.84;100.00;100837.72;20891223;28;20049;-71
2023/08/12 18:50:53;;;;;;;16.35;4.95;;;;;;;26.78;100.00;100846.13;20919736;28;20041;-71
2023/08/12 19:01:16;;;;;;;10.10;4.20;;;;;;;26.66;100.00;100844.03;20917028;28;20087;-71
2023/08/12 19:11:40;;;;;;;10.23;4.00;;;;;;;26.55;100.00;100839.16;20919450;28;20084;-71
2023/08/12 19:21:43;;;;;;;16.40;5.55;;;;;;;26.46;100.00;100850.44;20905491;28;20045;-71
2023/08/12 19:32:07;;;;;;;14.45;4.80;;;;;;;26.38;100.00;100849.06;20929852;28;20072;-71
2023/08/12 19:42:09;;;;;;;18.10;6.97;;;;;;;26.25;100.00;100847.91;20903280;28;20505;-71
2023/08/12 19:52:34;;;;;;;16.60;7.25;;;;;;;26.17;100.00;100846.41;20931315;28;20515;-70
2023/08/12 20:02:37;;;;;;;14.85;4.03;;;;;;;26.13;100.00;100847.50;20901467;28;20043;-70
2023/08/12 20:13:02;;;;;;;11.18;4.22;;;;;;;26.06;100.00;100842.44;20928811;28;20060;-71
2023/08/12 20:23:25;;;;;;;10.68;4.65;;;;;;;25.96;100.00;100836.59;20928449;28;20049;-71
2023/08/12 20:33:49;;;;;;;12.93;3.67;;;;;;;25.89;100.00;100834.25;20884740;28;20049;-71
2023/08/12 20:44:11;;;;;;;13.10;4.20;;;;;;;25.84;100.00;100831.75;20927809;28;20106;-70
2023/08/12 20:54:36;;;;;;;12.85;4.18;;;;;;;25.71;100.00;100841.38;20894337;28;20453;-71
2023/08/12 21:04:59;;;;;;;12.68;4.40;;;;;;;25.67;100.00;100839.75;20906083;28;20114;-71
2023/08/12 21:15:09;;;;;;;13.40;4.13;;;;;;;25.60;100.00;100838.31;20893728;28;20063;-70
2023/08/12 21:25:31;;;;;;;12.27;3.90;;;;;;;25.47;100.00;100840.63;20876598;28;20037;-70
2023/08/12 21:35:56;;;;;;;15.57;5.18;;;;;;;25.34;100.00;100836.69;20877759;28;20090;-71
2023/08/12 21:46:18;;;;;;;16.20;4.70;;;;;;;25.25;100.00;100829.91;20884434;28;20053;-70
2023/08/12 21:56:43;;;;;;;11.30;4.40;;;;;;;25.14;100.00;100823.22;20882355;28;20159;-71
2023/08/12 22:07:06;;;;;;;12.13;4.20;;;;;;;25.07;100.00;100811.78;20894644;28;20037;-71
2023/08/12 22:17:31;;;;;;;10.25;3.80;;;;;;;24.97;100.00;100807.72;20869320;28;20649;-71
2023/08/12 22:27:55;;;;;;;10.30;3.90;;;;;;;24.93;100.00;100788.06;20877335;28;20049;-71
2023/08/12 22:38:19;;;;;;;14.65;4.88;;;;;;;24.84;100.00;100777.63;20890700;28;20142;-71
2023/08/12 22:48:42;;;;;;;14.27;4.20;;;;;;;24.80;100.00;100765.19;20916760;28;20053;-71
2023/08/12 22:59:06;;;;;;;13.35;3.80;;;;;;;24.71;100.00;100753.91;20933252;28;20071;-71
2023/08/12 23:09:28;;;;;;;15.48;5.03;;;;;;;24.66;100.00;100748.69;20919735;28;20049;-71
2023/08/12 23:19:54;;;;;;;13.52;3.75;;;;;;;24.58;100.00;100743.63;20917683;28;20087;-71
2023/08/12 23:30:16;;;;;;;15.23;4.38;;;;;;;24.53;100.00;100718.66;20904281;28;20075;-71
2023/08/12 23:40:40;;;;;;;10.18;3.85;;;;;;;24.34;100.00;100712.28;20918450;28;20472;-70
2023/08/12 23:50:43;;;;;;;12.57;3.88;;;;;;;24.36;100.00;100710.38;20900384;28;20045;-71
